Time;durP1;ratioP1;P1;durP2;ratioP2;P2;SDS_P1;SDS_P2;PMS_P1;PMS_P2;Temp;Humidity;BMP_temperature;BMP_pressure;BME280_temperature;BME280_humidity;BME280_pressure;Samples;Min_cycle;Max_cycle;Signal;HPM_P1;HPM_P2
2023/06/26 00:00:17;;;;;;;10.88;10.20;;;22.30;99.90;;;;;;4996816;28;20038;-81
2023/06/26 00:02:42;;;;;;;11.02;10.35;;;22.20;99.90;;;;;;4995149;28;20056;-81
2023/06/26 00:05:08;;;;;;;11.05;10.35;;;22.30;99.90;;;;;;4999536;28;20628;-83
2023/06/26 00:07:34;;;;;;;11.00;10.35;;;22.30;99.90;;;;;;5000255;28;20056;-83
2023/06/26 00:10:02;;;;;;;11.13;10.45;;;22.10;99.90;;;;;;4983668;28;20053;-82
2023/06/26 00:12:28;;;;;;;10.85;10.20;;;22.20;99.90;;;;;;4996346;28;20056;-81
2023/06/26 00:14:54;;;;;;;9.82;9.23;;;22.10;99.90;;;;;;4999014;28;20057;-82
2023/06/26 00:17:20;;;;;;;9.57;8.98;;;22.10;99.90;;;;;;4997233;28;20443;-83
2023/06/26 00:19:45;;;;;;;9.32;8.73;;;22.20;99.90;;;;;;5002623;28;20060;-83
2023/06/26 00:22:11;;;;;;;9.00;8.40;;;22.10;99.90;;;;;;5000668;28;20153;-83
2023/06/26 00:24:37;;;;;;;8.93;8.32;;;22.00;99.90;;;;;;4995231;28;20750;-83
2023/06/26 00:27:03;;;;;;;7.80;7.30;;;21.90;99.90;;;;;;4990442;28;20054;-82
2023/06/26 00:29:28;;;;;;;7.43;6.93;;;21.80;99.90;;;;;;4996220;28;20050;-81
2023/06/26 00:31:54;;;;;;;6.82;6.35;;;21.90;99.90;;;;;;4979734;28;20038;-82
2023/06/26 00:34:19;;;;;;;6.50;6.10;;;21.80;99.90;;;;;;4997216;28;20096;-82
2023/06/26 00:36:45;;;;;;;7.40;6.90;;;21.80;99.90;;;;;;5018262;28;20046;-83
2023/06/26 00:39:11;;;;;;;7.45;6.95;;;21.70;99.90;;;;;;4990281;28;20042;-83
2023/06/26 00:41:39;;;;;;;5.80;5.40;;;21.90;99.90;;;;;;4989799;28;20046;-84
2023/06/26 00:44:06;;;;;;;5.18;4.88;;;21.80;99.90;;;;;;4994549;28;20132;-84
2023/06/26 00:46:32;;;;;;;5.22;4.88;;;21.90;99.90;;;;;;5000932;28;20055;-82
2023/06/26 00:49:03;;;;;;;4.78;4.47;;;21.80;99.90;;;;;;4994263;28;20096;-83
2023/06/26 00:51:30;;;;;;;6.97;6.38;;;21.70;99.90;;;;;;4997148;28;20038;-82
2023/06/26 00:53:56;;;;;;;4.47;4.18;;;21.70;99.90;;;;;;4987124;28;20041;-82
2023/06/26 00:56:22;;;;;;;4.30;4.00;;;21.70;99.90;;;;;;4997744;28;20104;-82
2023/06/26 00:58:48;;;;;;;3.72;3.53;;;21.70;99.90;;;;;;4990160;28;20707;-82
2023/06/26 01:01:17;;;;;;;3.75;3.55;;;21.60;99.90;;;;;;4997057;28;20054;-82
2023/06/26 01:03:51;;;;;;;3.85;3.65;;;21.60;99.90;;;;;;4995988;28;20440;-84
2023/06/26 01:06:17;;;;;;;3.85;3.65;;;21.70;99.90;;;;;;5019025;28;20045;-82
2023/06/26 01:08:45;;;;;;;4.00;3.75;;;21.60;99.90;;;;;;4998273;28;20061;-82
2023/06/26 01:11:12;;;;;;;4.00;3.75;;;21.60;99.90;;;;;;5003459;28;20155;-82
2023/06/26 01:13:39;;;;;;;3.30;3.10;;;21.60;99.90;;;;;;4993522;28;20514;-83
2023/06/26 01:16:05;;;;;;;3.10;2.90;;;21.50;99.90;;;;;;4993098;28;20073;-84
2023/06/26 01:18:32;;;;;;;2.92;2.72;;;21.50;99.90;;;;;;4992232;28;20038;-82
2023/06/26 01:21:01;;;;;;;2.88;2.67;;;21.40;99.90;;;;;;5005637;28;20124;-82
2023/06/26 01:23:47;;;;;;;2.33;2.22;;;21.60;99.90;;;;;;5004803;28;20518;-82
2023/06/26 01:26:20;;;;;;;2.10;2.00;;;21.50;99.90;;;;;;4987635;28;20068;-82
2023/06/26 01:28:48;;;;;;;0.55;0.50;;;21.40;99.90;;;;;;4995333;28;20144;-82
2023/06/26 01:31:15;;;;;;;1.52;1.42;;;21.50;99.90;;;;;;5002007;28;20061;-82
2023/06/26 01:33:41;;;;;;;1.30;1.30;;;21.50;99.90;;;;;;5000601;28;20054;-83
2023/06/26 01:36:07;;;;;;;1.20;1.20;;;21.50;99.90;;;;;;4995222;28;20046;-81
2023/06/26 01:38:34;;;;;;;1.10;1.10;;;21.40;99.90;;;;;;4998131;28;20622;-81
2023/06/26 01:41:00;;;;;;;1.10;1.10;;;21.40;99.90;;;;;;4994776;28;20058;-82
2023/06/26 01:43:54;;;;;;;1.00;1.00;;;21.40;99.90;;;;;;5004286;28;20487;-81
2023/06/26 01:46:53;;;;;;;1.00;1.00;;;21.30;99.90;;;;;;4993192;28;20049;-82
2023/06/26 01:49:30;;;;;;;1.00;1.00;;;21.30;99.90;;;;;;4993867;28;20128;-82
2023/06/26 01:52:04;;;;;;;1.00;1.00;;;21.20;99.90;;;;;;5001721;28;20495;-81
2023/06/26 01:54:37;;;;;;;0.90;0.90;;;21.10;99.90;;;;;;5021193;28;20491;-81
2023/06/26 01:57:05;;;;;;;0.98;0.98;;;21.10;99.90;;;;;;5001217;28;20051;-81
2023/06/26 01:59:33;;;;;;;0.90;0.90;;;21.10;99.90;;;;;;5004443;28;20049;-82
2023/06/26 02:02:01;;;;;;;1.00;1.00;;;21.10;99.90;;;;;;4989088;28;20208;-82
2023/06/26 02:04:26;;;;;;;1.00;1.00;;;21.00;99.90;;;;;;5000711;28;20733;-81
2023/06/26 02:06:52;;;;;;;0.90;0.90;;;21.00;99.90;;;;;;5000476;28;20046;-81
2023/06/26 02:09:18;;;;;;;1.00;1.00;;;21.00;99.90;;;;;;4983125;28;20088;-81
2023/06/26 02:11:43;;;;;;;0.90;0.90;;;21.00;99.90;;;;;;5004699;28;20057;-82
2023/06/26 02:14:10;;;;;;;1.00;1.00;;;20.90;99.90;;;;;;4996985;28;20041;-81
2023/06/26 02:16:38;;;;;;;0.90;0.90;;;20.90;99.90;;;;;;4988884;28;20052;-82
2023/06/26 02:19:04;;;;;;;1.00;1.00;;;20.80;99.90;;;;;;5001461;28;20042;-82
2023/06/26 02:21:30;;;;;;;1.08;1.08;;;20.70;99.90;;;;;;4986700;28;20458;-82
2023/06/26 02:23:55;;;;;;;0.30;0.30;;;20.70;99.90;;;;;;4999351;28;20053;-84
2023/06/26 02:26:21;;;;;;;1.08;1.08;;;20.60;99.90;;;;;;4973973;28;20103;-82
2023/06/26 02:28:46;;;;;;;0.30;0.30;;;20.50;99.90;;;;;;5001000;28;20056;-82
2023/06/26 02:31:12;;;;;;;1.10;1.10;;;20.50;99.90;;;;;;5003291;28;20053;-83
2023/06/26 02:33:38;;;;;;;0.30;0.30;;;20.50;99.90;;;;;;4996122;28;20573;-81
2023/06/26 02:36:04;;;;;;;1.10;1.10;;;20.50;99.90;;;;;;5001113;28;20524;-83
2023/06/26 02:38:30;;;;;;;1.00;1.00;;;20.40;99.90;;;;;;4995930;28;20077;-83
2023/06/26 02:40:55;;;;;;;1.20;1.20;;;20.40;99.90;;;;;;5002121;28;20037;-82
2023/06/26 02:43:21;;;;;;;1.10;1.10;;;20.50;99.90;;;;;;4992219;28;20045;-82
2023/06/26 02:45:47;;;;;;;1.05;1.05;;;20.40;99.90;;;;;;4993326;28;20049;-81
2023/06/26 02:48:12;;;;;;;1.00;1.00;;;20.30;99.90;;;;;;5002136;28;20041;-81
2023/06/26 02:50:38;;;;;;;1.02;1.02;;;20.40;99.90;;;;;;5003372;28;20041;-81
2023/06/26 02:53:03;;;;;;;1.10;1.10;;;20.50;99.90;;;;;;5018397;28;20053;-81
2023/06/26 02:55:29;;;;;;;1.10;1.10;;;20.60;99.90;;;;;;5001520;28;20057;-81
2023/06/26 02:57:55;;;;;;;1.10;1.10;;;20.50;99.90;;;;;;4995399;28;20033;-81
2023/06/26 03:00:20;;;;;;;1.20;1.20;;;20.50;99.90;;;;;;5004557;28;20130;-81
2023/06/26 03:02:46;;;;;;;1.20;1.20;;;20.50;99.90;;;;;;5004400;28;20180;-81
2023/06/26 03:05:13;;;;;;;1.02;1.02;;;20.60;99.90;;;;;;5000510;28;20041;-81
2023/06/26 03:07:38;;;;;;;1.10;1.10;;;20.50;99.90;;;;;;4989765;28;20064;-81
2023/06/26 03:10:05;;;;;;;1.00;1.00;;;20.60;99.90;;;;;;5002805;28;20049;-80
2023/06/26 03:12:31;;;;;;;1.05;1.05;;;20.60;99.90;;;;;;5000429;28;20059;-82
2023/06/26 03:14:56;;;;;;;1.00;1.00;;;20.60;99.90;;;;;;4985094;28;20041;-82
2023/06/26 03:17:22;;;;;;;1.00;1.00;;;20.60;99.90;;;;;;5002989;28;20057;-80
2023/06/26 03:19:47;;;;;;;1.10;1.10;;;20.60;99.90;;;;;;4995012;28;20037;-80
2023/06/26 03:22:13;;;;;;;1.10;1.10;;;20.60;99.90;;;;;;4978557;28;20088;-80
2023/06/26 03:24:39;;;;;;;1.02;1.02;;;20.60;99.90;;;;;;5003031;28;20154;-81
2023/06/26 03:27:05;;;;;;;1.00;1.00;;;20.70;99.90;;;;;;5001368;28;20073;-81
2023/06/26 03:29:30;;;;;;;1.00;1.00;;;20.80;99.90;;;;;;5021519;28;20719;-80
2023/06/26 03:31:56;;;;;;;1.00;1.00;;;20.80;99.90;;;;;;4995152;28;20096;-81
2023/06/26 03:34:22;;;;;;;1.02;1.02;;;20.80;99.90;;;;;;4999865;28;20049;-80
2023/06/26 03:36:47;;;;;;;1.05;1.05;;;20.80;99.90;;;;;;5000923;28;20052;-80
2023/06/26 03:39:13;;;;;;;1.00;1.00;;;20.70;99.90;;;;;;4998391;28;20487;-81
2023/06/26 03:41:39;;;;;;;1.50;1.40;;;20.70;99.90;;;;;;5000492;28;20479;-81
2023/06/26 03:44:04;;;;;;;1.02;1.02;;;20.80;99.90;;;;;;5004904;28;20057;-81
2023/06/26 03:46:30;;;;;;;1.00;1.00;;;20.70;99.90;;;;;;5002511;28;20046;-82
2023/06/26 03:48:56;;;;;;;1.00;1.00;;;20.70;99.90;;;;;;5017826;28;20071;-82
2023/06/26 03:51:22;;;;;;;1.02;1.02;;;20.80;99.90;;;;;;4994686;28;20151;-85
2023/06/26 03:53:47;;;;;;;1.00;1.00;;;20.90;99.90;;;;;;5002345;28;20077;-83
2023/06/26 03:56:13;;;;;;;1.10;1.10;;;20.90;99.90;;;;;;5003399;28;20068;-83
2023/06/26 03:58:39;;;;;;;1.10;1.10;;;21.00;99.90;;;;;;5020017;28;20111;-84
2023/06/26 04:01:05;;;;;;;1.02;1.02;;;21.00;99.90;;;;;;5000703;28;20042;-83
2023/06/26 04:03:31;;;;;;;1.00;1.00;;;21.00;99.90;;;;;;5000132;28;20068;-83
2023/06/26 04:05:57;;;;;;;1.05;1.05;;;21.10;99.90;;;;;;5004741;28;20049;-83
2023/06/26 04:08:26;;;;;;;1.00;1.00;;;21.10;99.90;;;;;;5021198;28;20037;-82
2023/06/26 04:10:52;;;;;;;1.10;1.10;;;21.10;99.90;;;;;;4994829;28;20049;-81
2023/06/26 04:13:18;;;;;;;1.10;1.10;;;21.20;99.90;;;;;;5004686;28;20080;-80
2023/06/26 04:15:43;;;;;;;1.02;1.02;;;21.10;99.90;;;;;;4997531;28;20092;-82
2023/06/26 04:18:09;;;;;;;1.02;1.02;;;21.10;99.90;;;;;;5006332;28;20041;-81
2023/06/26 04:21:05;;;;;;;1.10;1.10;;;21.10;99.90;;;;;;5008542;28;20072;-81
2023/06/26 04:23:31;;;;;;;1.02;1.02;;;21.10;99.90;;;;;;5025565;28;20049;-80
2023/06/26 04:25:58;;;;;;;1.00;1.00;;;21.10;99.90;;;;;;5000528;28;20061;-82
2023/06/26 04:28:24;;;;;;;1.00;1.00;;;21.10;99.90;;;;;;5006503;28;20057;-82
2023/06/26 04:30:49;;;;;;;1.02;1.02;;;21.20;99.90;;;;;;5006999;28;20415;-81
2023/06/26 04:33:15;;;;;;;0.93;0.93;;;21.30;99.90;;;;;;4994760;28;20046;-83
2023/06/26 04:35:41;;;;;;;1.00;1.00;;;21.40;99.90;;;;;;5005648;28;20049;-81
2023/06/26 04:38:06;;;;;;;1.00;1.00;;;21.40;99.90;;;;;;5006480;28;20049;-83
2023/06/26 04:40:32;;;;;;;0.90;0.90;;;21.40;99.90;;;;;;5006919;28;20108;-83
2023/06/26 04:42:58;;;;;;;0.95;0.95;;;21.50;99.90;;;;;;5006766;28;20115;-81
2023/06/26 04:45:23;;;;;;;1.05;1.05;;;22.00;99.90;;;;;;5024982;28;20127;-82
2023/06/26 04:47:49;;;;;;;1.10;1.10;;;22.30;99.90;;;;;;5006523;28;20180;-84
2023/06/26 04:50:14;;;;;;;1.25;1.25;;;23.20;99.90;;;;;;4990866;28;20045;-79
2023/06/26 04:52:40;;;;;;;1.30;1.30;;;24.00;99.90;;;;;;5005138;28;20160;-81
2023/06/26 04:55:06;;;;;;;1.30;1.30;;;24.50;99.90;;;;;;5023099;28;20052;-82
2023/06/26 04:57:31;;;;;;;1.20;1.20;;;23.60;99.90;;;;;;5023947;28;20041;-82
2023/06/26 04:59:57;;;;;;;1.20;1.20;;;23.40;99.90;;;;;;5004678;28;20081;-85
2023/06/26 05:02:23;;;;;;;1.15;1.15;;;23.00;99.90;;;;;;5003284;28;20132;-84
2023/06/26 05:04:48;;;;;;;1.30;1.30;;;22.60;99.90;;;;;;5007521;28;20565;-84
2023/06/26 05:07:14;;;;;;;1.27;1.27;;;22.60;99.90;;;;;;5007569;28;20048;-83
2023/06/26 05:09:40;;;;;;;1.48;1.38;;;24.20;99.90;;;;;;4999844;28;20073;-86
2023/06/26 05:12:06;;;;;;;1.60;1.50;;;24.70;99.90;;;;;;4997063;28;20065;-87
2023/06/26 05:14:31;;;;;;;1.88;1.77;;;25.30;99.90;;;;;;5004256;28;20069;-81
2023/06/26 05:16:57;;;;;;;1.80;1.70;;;26.00;99.90;;;;;;4998200;28;20034;-87
2023/06/26 05:19:23;;;;;;;0.55;0.55;;;26.60;99.90;;;;;;4996368;28;20212;-83
2023/06/26 05:21:49;;;;;;;1.73;1.63;;;25.80;99.90;;;;;;4999834;28;20128;-83
2023/06/26 05:24:16;;;;;;;1.73;1.63;;;24.80;99.90;;;;;;4984660;28;20535;-88
2023/06/26 05:26:42;;;;;;;1.80;1.70;;;23.70;99.90;;;;;;4988186;28;20657;-88
2023/06/26 05:29:07;;;;;;;1.80;1.70;;;23.20;99.90;;;;;;5005883;28;20049;-85
2023/06/26 05:31:35;;;;;;;1.65;1.55;;;22.80;99.90;;;;;;4995040;28;20129;-85
2023/06/26 05:34:03;;;;;;;1.88;1.77;;;22.60;99.90;;;;;;4995319;28;20077;-83
2023/06/26 05:36:32;;;;;;;1.85;1.75;;;22.40;99.90;;;;;;4994763;28;20868;-86
2023/06/26 05:38:58;;;;;;;1.80;1.70;;;22.40;99.90;;;;;;5006059;28;20087;-84
2023/06/26 05:41:24;;;;;;;1.95;1.85;;;23.10;99.90;;;;;;4989328;28;20041;-89
2023/06/26 05:43:50;;;;;;;1.90;1.80;;;22.40;99.90;;;;;;5004590;28;20096;-86
2023/06/26 05:46:16;;;;;;;2.03;1.92;;;22.10;99.90;;;;;;5008368;28;20534;-88
2023/06/26 05:48:42;;;;;;;1.98;1.88;;;22.00;99.90;;;;;;4998609;28;20080;-85
2023/06/26 05:51:08;;;;;;;2.10;2.00;;;22.00;99.90;;;;;;4998529;28;20088;-87
2023/06/26 05:53:34;;;;;;;2.25;2.15;;;21.90;99.90;;;;;;5001429;28;20089;-85
2023/06/26 05:56:00;;;;;;;2.35;2.25;;;21.90;99.90;;;;;;5002306;28;20447;-86
2023/06/26 05:58:27;;;;;;;2.40;2.30;;;21.90;99.90;;;;;;4976460;28;20069;-88
2023/06/26 06:00:53;;;;;;;2.33;2.22;;;22.00;99.90;;;;;;4982336;28;20136;-86
2023/06/26 06:03:19;;;;;;;2.45;2.35;;;22.30;99.90;;;;;;5006084;28;20077;-85
2023/06/26 06:05:44;;;;;;;2.90;2.70;;;22.60;99.90;;;;;;4994459;28;20045;-85
2023/06/26 06:08:10;;;;;;;2.47;2.38;;;22.70;99.90;;;;;;4996284;28;20092;-85
2023/06/26 06:10:35;;;;;;;2.53;2.42;;;22.90;99.90;;;;;;5001555;28;20118;-86
2023/06/26 06:13:01;;;;;;;2.55;2.45;;;22.70;99.90;;;;;;4998609;28;20060;-88
2023/06/26 06:15:27;;;;;;;2.60;2.50;;;22.80;99.90;;;;;;5001688;28;20103;-84
2023/06/26 06:17:52;;;;;;;2.53;2.42;;;23.00;99.90;;;;;;4987937;28;20141;-84
2023/06/26 06:20:21;;;;;;;2.70;2.55;;;23.40;99.90;;;;;;4993620;28;20054;-85
2023/06/26 06:22:48;;;;;;;2.55;2.45;;;23.50;99.90;;;;;;4995705;28;20037;-87
2023/06/26 06:25:14;;;;;;;2.50;2.40;;;23.50;99.90;;;;;;5004106;28;20034;-84
2023/06/26 06:27:40;;;;;;;2.58;2.47;;;23.60;99.90;;;;;;5005401;28;20044;-86
2023/06/26 06:30:06;;;;;;;2.40;2.30;;;23.50;99.90;;;;;;4992246;28;20065;-85
2023/06/26 06:32:31;;;;;;;2.47;2.38;;;23.80;99.90;;;;;;5005603;28;20080;-87
2023/06/26 06:34:57;;;;;;;2.40;2.30;;;23.80;99.90;;;;;;5010256;28;20107;-88
2023/06/26 06:37:23;;;;;;;2.45;2.35;;;23.90;99.90;;;;;;5005301;28;20174;-83
2023/06/26 06:39:48;;;;;;;2.22;2.13;;;23.80;99.90;;;;;;5006279;28;20167;-86
2023/06/26 06:42:14;;;;;;;2.17;2.08;;;23.50;99.90;;;;;;4995535;28;20046;-85
2023/06/26 06:44:40;;;;;;;1.98;1.88;;;23.30;99.90;;;;;;4989545;28;20420;-85
2023/06/26 06:47:05;;;;;;;2.13;2.03;;;23.10;99.90;;;;;;4998053;28;20042;-80
2023/06/26 06:49:31;;;;;;;2.15;2.05;;;22.80;99.90;;;;;;5006734;28;20418;-81
2023/06/26 06:51:57;;;;;;;2.20;2.10;;;23.00;99.90;;;;;;5006846;28;20045;-78
2023/06/26 06:54:26;;;;;;;2.00;1.90;;;23.30;99.90;;;;;;5005303;28;20128;-82
2023/06/26 06:56:52;;;;;;;2.00;1.90;;;23.40;99.90;;;;;;5010739;28;20552;-83
2023/06/26 06:59:18;;;;;;;2.00;1.90;;;23.10;99.90;;;;;;5007313;28;20049;-84
2023/06/26 07:01:43;;;;;;;1.70;1.60;;;23.40;99.90;;;;;;5007195;28;20060;-85
2023/06/26 07:04:09;;;;;;;1.83;1.73;;;23.70;99.90;;;;;;5007849;28;20060;-84
2023/06/26 07:06:35;;;;;;;1.70;1.60;;;23.80;99.90;;;;;;4991808;28;20049;-83
2023/06/26 07:09:00;;;;;;;1.90;1.80;;;23.90;99.90;;;;;;5008238;28;20135;-84
2023/06/26 07:11:26;;;;;;;1.60;1.50;;;23.90;99.90;;;;;;5007901;28;20053;-84
2023/06/26 07:13:52;;;;;;;1.70;1.60;;;24.10;99.90;;;;;;5008419;28;20053;-84
2023/06/26 07:16:18;;;;;;;1.70;1.60;;;24.30;99.90;;;;;;5008118;28;20608;-84
2023/06/26 07:18:43;;;;;;;1.70;1.60;;;24.30;99.90;;;;;;5008648;28;20135;-86
2023/06/26 07:21:09;;;;;;;1.70;1.60;;;24.40;99.90;;;;;;5006154;28;20183;-84
2023/06/26 07:23:35;;;;;;;1.20;1.20;;;24.60;99.90;;;;;;5005125;28;20128;-84
2023/06/26 07:26:00;;;;;;;1.52;1.42;;;24.80;99.90;;;;;;5004041;28;20048;-81
2023/06/26 07:28:26;;;;;;;1.50;1.40;;;25.10;99.90;;;;;;5008109;28;20034;-83
2023/06/26 07:30:53;;;;;;;0.65;0.65;;;25.10;99.90;;;;;;4987373;28;20071;-83
2023/06/26 07:33:20;;;;;;;1.52;1.42;;;25.20;99.90;;;;;;5004268;28;20081;-81
2023/06/26 07:35:46;;;;;;;0.55;0.55;;;25.70;99.90;;;;;;5004208;28;20064;-84
2023/06/26 07:38:11;;;;;;;0.50;0.50;;;25.30;99.90;;;;;;5003369;28;20045;-83
2023/06/26 07:40:37;;;;;;;1.42;1.35;;;24.60;99.90;;;;;;5007577;28;20063;-83
2023/06/26 07:43:03;;;;;;;0.50;0.50;;;24.90;99.90;;;;;;5007400;28;20503;-83
2023/06/26 07:45:28;;;;;;;0.30;0.30;;;25.00;99.90;;;;;;5007974;28;20046;-81
2023/06/26 07:47:54;;;;;;;1.23;1.23;;;25.10;99.90;;;;;;5002959;28;20049;-83
2023/06/26 07:50:22;;;;;;;0.55;0.55;;;25.30;99.90;;;;;;5004213;28;20443;-83
2023/06/26 07:52:48;;;;;;;0.30;0.30;;;25.50;99.90;;;;;;5003952;28;20057;-84
2023/06/26 07:55:14;;;;;;;1.33;1.30;;;25.40;99.90;;;;;;5014402;28;20041;-82
2023/06/26 07:57:39;;;;;;;0.70;0.70;;;25.10;99.90;;;;;;5004532;28;20682;-83
2023/06/26 08:00:06;;;;;;;0.30;0.30;;;25.40;99.90;;;;;;4987684;28;20058;-83
2023/06/26 08:02:32;;;;;;;1.48;1.40;;;25.30;99.90;;;;;;5001837;28;20081;-84
2023/06/26 08:04:58;;;;;;;1.67;1.58;;;25.60;99.90;;;;;;5002748;28;20143;-83
2023/06/26 08:07:23;;;;;;;1.25;1.25;;;25.80;99.90;;;;;;5005252;28;20037;-83
2023/06/26 08:09:49;;;;;;;0.30;0.30;;;25.80;99.90;;;;;;4982952;28;20048;-84
2023/06/26 08:12:14;;;;;;;0.28;0.28;;;25.80;99.90;;;;;;5007403;28;20045;-83
2023/06/26 08:14:40;;;;;;;0.20;0.20;;;26.10;99.90;;;;;;5004460;28;20605;-85
2023/06/26 08:17:06;;;;;;;0.25;0.25;;;26.40;99.90;;;;;;5007303;28;20041;-85
2023/06/26 08:19:31;;;;;;;0.85;0.30;;;26.10;99.90;;;;;;5006532;28;20440;-84
2023/06/26 08:21:57;;;;;;;0.30;0.30;;;26.10;99.90;;;;;;5007691;28;20056;-86
2023/06/26 08:24:23;;;;;;;0.30;0.30;;;26.00;99.90;;;;;;5006757;28;20057;-85
2023/06/26 08:26:48;;;;;;;0.20;0.20;;;25.60;99.90;;;;;;5006454;28;20042;-84
2023/06/26 08:29:14;;;;;;;0.20;0.20;;;26.00;99.90;;;;;;5007178;28;20045;-85
2023/06/26 08:31:41;;;;;;;0.22;0.22;;;25.70;99.90;;;;;;5007662;28;20064;-84
2023/06/26 08:34:07;;;;;;;0.93;0.93;;;25.20;99.90;;;;;;5006019;28;20054;-83
2023/06/26 08:36:33;;;;;;;0.20;0.20;;;25.10;99.90;;;;;;5007319;28;20049;-85
2023/06/26 08:38:59;;;;;;;0.30;0.30;;;25.00;99.90;;;;;;5007403;28;20041;-82
2023/06/26 08:41:25;;;;;;;1.52;1.42;;;24.70;99.90;;;;;;5007964;28;20045;-87
2023/06/26 08:43:52;;;;;;;1.05;1.05;;;24.30;99.90;;;;;;5006725;28;20123;-85
2023/06/26 08:46:19;;;;;;;1.83;1.73;;;24.10;99.90;;;;;;4987932;28;20443;-85
2023/06/26 08:49:04;;;;;;;0.30;0.30;;;24.50;99.90;;;;;;5007300;28;20049;-84
2023/06/26 08:51:33;;;;;;;0.30;0.30;;;24.30;99.90;;;;;;5004086;28;20042;-85
2023/06/26 08:54:01;;;;;;;1.10;1.10;;;23.90;99.90;;;;;;5006451;28;20581;-84
2023/06/26 08:56:39;;;;;;;2.13;2.03;;;24.10;99.90;;;;;;4988799;28;20060;-84
2023/06/26 08:59:06;;;;;;;2.17;2.08;;;24.90;99.90;;;;;;4987656;28;20045;-84
2023/06/26 09:01:32;;;;;;;0.38;0.38;;;24.90;99.90;;;;;;5007004;28;20049;-85
2023/06/26 09:03:58;;;;;;;2.08;1.98;;;24.30;99.90;;;;;;5008128;28;20049;-84
2023/06/26 09:06:24;;;;;;;0.30;0.30;;;24.30;99.90;;;;;;5010513;28;20076;-85
2023/06/26 09:08:50;;;;;;;1.98;1.88;;;24.30;99.90;;;;;;5026838;28;20108;-83
2023/06/26 09:11:15;;;;;;;0.30;0.30;;;24.20;99.90;;;;;;5010815;28;20570;-85
2023/06/26 09:13:42;;;;;;;2.15;2.05;;;24.60;99.90;;;;;;5008236;28;20384;-83
2023/06/26 09:16:08;;;;;;;0.85;0.85;;;24.80;99.90;;;;;;4993878;28;20498;-84
2023/06/26 09:25:31;;;;;;;2.40;2.30;;;24.50;99.90;;;;;;5144507;27;21061;-84
2023/06/26 09:27:57;;;;;;;2.40;2.30;;;24.60;99.90;;;;;;5147662;27;20050;-84
2023/06/26 09:30:23;;;;;;;1.67;1.58;;;25.70;99.90;;;;;;5144993;27;20123;-86
2023/06/26 09:32:54;;;;;;;2.35;2.25;;;26.00;99.90;;;;;;5143126;27;20551;-86
2023/06/26 09:35:20;;;;;;;1.42;1.35;;;26.40;99.90;;;;;;5145100;27;20061;-86
2023/06/26 09:37:45;;;;;;;0.65;0.65;;;26.80;99.90;;;;;;5141659;27;20046;-85
2023/06/26 09:40:13;;;;;;;0.30;0.30;;;26.40;99.90;;;;;;5152354;27;20635;-86
2023/06/26 09:42:39;;;;;;;0.95;0.95;;;26.20;99.90;;;;;;5149587;27;20086;-85
2023/06/26 09:45:05;;;;;;;0.30;0.30;;;26.20;99.90;;;;;;5146070;27;20067;-86
2023/06/26 09:47:34;;;;;;;0.30;0.30;;;26.50;99.90;;;;;;5140685;27;20500;-86
2023/06/26 09:50:02;;;;;;;0.30;0.30;;;26.90;99.90;;;;;;5143898;27;20407;-85
2023/06/26 09:52:29;;;;;;;0.30;0.30;;;26.60;99.90;;;;;;5147965;27;20054;-85
2023/06/26 09:55:08;;;;;;;0.28;0.28;;;25.60;99.90;;;;;;5147235;27;20164;-86
2023/06/26 09:57:34;;;;;;;0.30;0.30;;;25.60;99.90;;;;;;5126708;27;20046;-86
2023/06/26 10:00:02;;;;;;;0.30;0.30;;;26.30;99.90;;;;;;5142135;27;20559;-83
2023/06/26 10:02:28;;;;;;;0.30;0.30;;;26.00;99.90;;;;;;5146137;27;20053;-86
2023/06/26 10:04:53;;;;;;;0.30;0.30;;;25.30;99.90;;;;;;5143468;27;20031;-86
2023/06/26 10:07:20;;;;;;;0.30;0.30;;;25.50;99.90;;;;;;5144508;27;20141;-86
2023/06/26 10:09:48;;;;;;;0.30;0.30;;;26.30;99.90;;;;;;5147080;27;20734;-87
2023/06/26 10:12:30;;;;;;;0.30;0.30;;;26.50;99.90;;;;;;5149266;27;20047;-86
2023/06/26 10:15:00;;;;;;;0.30;0.30;;;25.60;99.90;;;;;;5151745;27;20081;-87
2023/06/26 10:17:30;;;;;;;1.75;1.65;;;25.30;99.90;;;;;;5127604;27;20039;-87
2023/06/26 10:20:00;;;;;;;0.30;0.30;;;25.00;99.90;;;;;;5147087;27;20046;-86
2023/06/26 10:22:31;;;;;;;0.35;0.30;;;25.90;99.90;;;;;;5146611;27;20050;-86
2023/06/26 10:25:00;;;;;;;0.30;0.30;;;26.40;99.90;;;;;;5146344;27;20117;-89
2023/06/26 10:27:32;;;;;;;1.85;1.75;;;25.80;99.90;;;;;;5143986;27;20051;-84
2023/06/26 10:30:03;;;;;;;0.52;0.52;;;25.60;99.90;;;;;;5143568;27;20053;-85
2023/06/26 10:32:29;;;;;;;0.30;0.30;;;26.40;99.90;;;;;;5124663;27;20089;-84
2023/06/26 10:34:56;;;;;;;0.38;0.38;;;25.90;99.90;;;;;;5142581;27;20078;-84
2023/06/26 10:37:41;;;;;;;0.30;0.30;;;25.90;99.90;;;;;;5115803;27;20464;-88
2023/06/26 10:40:07;;;;;;;0.30;0.30;;;26.70;99.90;;;;;;5129086;27;20123;-85
2023/06/26 10:42:38;;;;;;;0.43;0.43;;;27.10;99.90;;;;;;5136562;27;20082;-84
2023/06/26 10:45:21;;;;;;;0.30;0.30;;;26.80;99.90;;;;;;5127799;27;20042;-86
2023/06/26 10:47:48;;;;;;;0.30;0.30;;;26.80;99.90;;;;;;5132961;27;20046;-86
2023/06/26 10:50:24;;;;;;;0.30;0.30;;;26.80;99.90;;;;;;5119440;27;20530;-85
2023/06/26 10:53:22;;;;;;;0.30;0.30;;;26.60;99.90;;;;;;5120030;27;20504;-86
2023/06/26 10:56:02;;;;;;;0.30;0.30;;;25.50;99.90;;;;;;5108360;27;20075;-87
2023/06/26 10:58:40;;;;;;;0.75;0.75;;;25.60;99.90;;;;;;5125810;27;20047;-86
2023/06/26 11:01:12;;;;;;;0.30;0.30;;;24.90;99.90;;;;;;5115556;27;20043;-86
2023/06/26 11:03:39;;;;;;;1.67;0.40;;;24.70;99.90;;;;;;5124782;27;20049;-86
2023/06/26 11:06:16;;;;;;;0.30;0.30;;;24.60;99.90;;;;;;5114942;27;20049;-88
2023/06/26 11:08:53;;;;;;;0.30;0.30;;;25.60;99.90;;;;;;5122630;27;20042;-88
2023/06/26 11:11:20;;;;;;;0.52;0.52;;;25.80;99.30;;;;;;5127060;27;20154;-84
2023/06/26 11:13:47;;;;;;;0.40;0.40;;;26.20;99.90;;;;;;5132099;27;20088;-87
2023/06/26 11:16:14;;;;;;;0.75;0.75;;;26.50;99.90;;;;;;5136562;27;20134;-86
2023/06/26 11:18:41;;;;;;;0.30;0.30;;;25.80;99.60;;;;;;5110779;27;20042;-84
2023/06/26 11:21:14;;;;;;;0.30;0.30;;;26.00;99.70;;;;;;5135924;27;20687;-90
2023/06/26 11:23:40;;;;;;;0.32;0.32;;;26.10;99.90;;;;;;5131188;27;20046;-86
2023/06/26 11:26:21;;;;;;;0.30;0.30;;;26.30;99.70;;;;;;5136182;27;20046;-87
2023/06/26 11:28:57;;;;;;;0.32;0.32;;;26.80;99.70;;;;;;5116556;27;20499;-85
2023/06/26 11:31:32;;;;;;;0.30;0.30;;;26.70;99.20;;;;;;5135867;27;20419;-86
2023/06/26 11:34:05;;;;;;;0.40;0.40;;;26.60;97.50;;;;;;5132485;27;20598;-87
2023/06/26 11:36:31;;;;;;;0.30;0.30;;;26.70;97.60;;;;;;5129656;27;20419;-86
2023/06/26 11:39:03;;;;;;;0.30;0.30;;;27.00;98.20;;;;;;5133834;27;20389;-83
2023/06/26 11:41:31;;;;;;;0.30;0.30;;;26.90;97.60;;;;;;5111666;27;20051;-85
2023/06/26 11:44:04;;;;;;;0.20;0.20;;;26.80;97.00;;;;;;5132550;27;20040;-86
2023/06/26 11:46:30;;;;;;;0.20;0.20;;;26.30;98.10;;;;;;5133431;27;20047;-84
2023/06/26 11:48:56;;;;;;;0.20;0.20;;;25.40;97.90;;;;;;5125466;27;20047;-87
2023/06/26 11:51:22;;;;;;;0.47;0.47;;;24.70;99.00;;;;;;5129583;27;20061;-83
2023/06/26 11:53:48;;;;;;;0.45;0.45;;;24.50;99.20;;;;;;5128788;27;20169;-89
2023/06/26 11:56:17;;;;;;;0.30;0.30;;;25.10;99.10;;;;;;5125531;27;20074;-84
2023/06/26 11:59:00;;;;;;;0.30;0.30;;;25.90;98.40;;;;;;5128599;27;20054;-86
2023/06/26 12:01:36;;;;;;;0.38;0.38;;;26.10;98.80;;;;;;5130089;27;20238;-84
2023/06/26 12:04:14;;;;;;;0.30;0.30;;;26.10;99.40;;;;;;5127308;27;20118;-89
2023/06/26 12:06:44;;;;;;;0.30;0.30;;;25.10;99.20;;;;;;5128524;27;20043;-86
2023/06/26 12:09:11;;;;;;;0.30;0.30;;;25.20;98.30;;;;;;5131891;27;20130;-89
2023/06/26 12:11:38;;;;;;;0.28;0.28;;;25.80;99.00;;;;;;5132307;27;20053;-87
2023/06/26 12:14:06;;;;;;;0.95;0.95;;;25.90;99.80;;;;;;5126577;27;20551;-87
2023/06/26 12:16:34;;;;;;;0.40;0.40;;;25.50;98.90;;;;;;5135047;27;20082;-84
2023/06/26 12:19:01;;;;;;;0.63;0.63;;;25.10;98.40;;;;;;5128911;27;20047;-88
2023/06/26 12:21:42;;;;;;;0.60;0.60;;;25.10;99.40;;;;;;5125623;27;20395;-87
2023/06/26 12:24:17;;;;;;;0.45;0.45;;;24.60;98.50;;;;;;5114790;27;20130;-89
2023/06/26 12:26:45;;;;;;;0.98;0.98;;;24.20;97.10;;;;;;5115372;27;20034;-88
2023/06/26 12:29:13;;;;;;;0.30;0.30;;;25.40;98.80;;;;;;5132198;27;20039;-88
2023/06/26 12:31:46;;;;;;;0.30;0.30;;;25.30;98.00;;;;;;5117142;27;20042;-89
2023/06/26 12:34:17;;;;;;;0.73;0.73;;;25.20;98.50;;;;;;5114650;27;20046;-87
2023/06/26 12:36:44;;;;;;;0.20;0.20;;;25.60;99.70;;;;;;5110407;27;20047;-83
2023/06/26 12:39:11;;;;;;;0.30;0.30;;;25.80;98.40;;;;;;5131280;27;20104;-87
2023/06/26 12:41:53;;;;;;;0.73;0.73;;;25.20;98.90;;;;;;5109196;27;20118;-86
2023/06/26 12:44:30;;;;;;;0.20;0.20;;;25.10;99.20;;;;;;5134856;27;20138;-87
2023/06/26 12:47:00;;;;;;;0.70;0.70;;;25.50;98.90;;;;;;5134206;27;20118;-87
2023/06/26 12:49:34;;;;;;;0.22;0.22;;;24.80;98.80;;;;;;5126134;27;20488;-88
2023/06/26 12:52:02;;;;;;;0.20;0.20;;;24.10;98.20;;;;;;5127352;27;20046;-87
2023/06/26 12:54:28;;;;;;;0.30;0.30;;;24.10;98.60;;;;;;5133862;27;20537;-86